createdAt,value
2023-04-18T00:02:17.274Z,72.44
2023-04-18T00:04:46.415Z,72.32
2023-04-18T00:07:15.251Z,72.04
2023-04-18T00:09:44.818Z,71.62
2023-04-18T00:12:12.733Z,71.68
2023-04-18T00:14:41.023Z,71.62
2023-04-18T00:17:09.011Z,71.41
2023-04-18T00:19:38.536Z,71.09
2023-04-18T00:22:07.022Z,70.99
2023-04-18T00:24:34.827Z,70.91
2023-04-18T00:27:04.032Z,71.18
2023-04-18T00:29:32.329Z,71.03
2023-04-18T00:32:00.042Z,70.84
2023-04-18T00:34:31.490Z,70.68
2023-04-18T00:36:59.264Z,70.47
2023-04-18T00:39:26.945Z,70.66
2023-04-18T00:41:54.728Z,70.89
2023-04-18T00:44:23.824Z,70.86
2023-04-18T00:46:51.527Z,70.80
2023-04-18T00:49:19.406Z,71.11
2023-04-18T00:51:48.139Z,71.25
2023-04-18T00:54:22.149Z,71.20
2023-04-18T00:56:50.426Z,70.68
2023-04-18T00:59:18.274Z,70.77
2023-04-18T01:01:48.244Z,70.75
2023-04-18T01:04:16.325Z,70.57
2023-04-18T01:06:45.506Z,70.87
2023-04-18T01:09:14.297Z,70.74
2023-04-18T01:11:42.037Z,70.60
2023-04-18T01:14:10.528Z,70.82
2023-04-18T01:16:38.829Z,70.36
2023-04-18T01:19:08.393Z,70.50
2023-04-18T01:21:37.194Z,70.24
2023-04-18T01:24:12.467Z,70.41
2023-04-18T01:26:43.562Z,70.83
2023-04-18T01:29:12.077Z,70.15
2023-04-18T01:31:40.910Z,70.20
2023-04-18T01:34:09.496Z,69.98
2023-04-18T01:36:39.105Z,70.12
2023-04-18T01:39:07.528Z,69.87
2023-04-18T01:41:36.673Z,70.06
2023-04-18T01:44:05.010Z,69.83
2023-04-18T01:46:32.858Z,69.76
2023-04-18T01:49:02.459Z,69.87
2023-04-18T01:51:31.328Z,69.67
2023-04-18T01:53:59.207Z,69.74
2023-04-18T01:56:27.040Z,69.98
2023-04-18T01:58:56.125Z,69.63
2023-04-18T02:01:23.941Z,69.64
2023-04-18T02:03:52.069Z,69.79
2023-04-18T02:06:20.355Z,69.91
2023-04-18T02:08:49.095Z,70.09
2023-04-18T02:11:16.818Z,70.13
2023-04-18T02:13:44.566Z,70.23
2023-04-18T02:16:14.731Z,70.36
2023-04-18T02:18:44.705Z,70.64
2023-04-18T02:21:14.436Z,70.67
2023-04-18T02:23:42.186Z,70.74
2023-04-18T02:26:09.931Z,70.87
2023-04-18T02:28:38.932Z,70.71
2023-04-18T02:31:07.220Z,70.96
2023-04-18T02:33:36.962Z,70.75
2023-04-18T02:36:05.480Z,71.32
2023-04-18T02:38:33.170Z,71.54
2023-04-18T02:41:01.000Z,71.18
2023-04-18T02:43:28.771Z,71.91
2023-04-18T02:45:56.708Z,71.92
2023-04-18T02:48:24.882Z,71.90
2023-04-18T02:50:54.104Z,71.78
2023-04-18T02:53:23.915Z,72.47
2023-04-18T02:55:54.575Z,72.10
2023-04-18T02:58:27.557Z,72.18
2023-04-18T03:01:16.464Z,72.58
2023-04-18T03:03:58.178Z,72.11
2023-04-18T03:06:34.999Z,72.45
2023-04-18T03:09:04.156Z,72.67
2023-04-18T03:11:34.239Z,72.93
2023-04-18T03:14:02.078Z,72.68
2023-04-18T03:16:37.442Z,72.86
2023-04-18T03:19:06.838Z,73.00
2023-04-18T03:21:36.421Z,72.83
2023-04-18T03:24:04.280Z,73.35
2023-04-18T03:26:34.221Z,73.21
2023-04-18T03:29:02.899Z,72.92
2023-04-18T03:31:30.820Z,73.32
2023-04-18T03:33:58.592Z,73.12
2023-04-18T03:36:28.632Z,73.50
2023-04-18T03:38:57.736Z,73.62
2023-04-18T03:41:26.267Z,73.50
2023-04-18T03:43:56.230Z,73.65
2023-04-18T03:46:24.590Z,73.66
2023-04-18T03:48:54.356Z,74.62
2023-04-18T03:51:22.543Z,74.03
2023-04-18T03:53:50.282Z,74.27
2023-04-18T03:56:20.356Z,74.70
2023-04-18T03:58:51.342Z,74.28
2023-04-18T04:01:21.565Z,75.01
2023-04-18T04:03:52.073Z,75.12
2023-04-18T04:06:20.913Z,75.58
2023-04-18T04:08:48.632Z,75.43
2023-04-18T04:11:22.909Z,75.92
2023-04-18T04:13:51.113Z,75.61
2023-04-18T04:16:23.115Z,76.05
2023-04-18T04:18:52.985Z,75.83
2023-04-18T04:21:27.123Z,75.73
2023-04-18T04:23:54.973Z,75.66
2023-04-18T04:26:31.656Z,76.05
2023-04-18T04:29:05.082Z,76.38
2023-04-18T04:31:35.001Z,76.85
2023-04-18T04:34:03.440Z,76.17
2023-04-18T04:36:33.376Z,76.26
2023-04-18T04:39:04.108Z,76.87
2023-04-18T04:41:49.899Z,77.10
2023-04-18T04:44:19.722Z,76.60
2023-04-18T04:46:47.851Z,76.53
2023-04-18T04:49:20.519Z,77.07
2023-04-18T04:51:49.270Z,76.99
2023-04-18T04:54:17.159Z,76.66
2023-04-18T04:56:44.997Z,77.05
2023-04-18T04:59:14.291Z,77.42
2023-04-18T05:01:46.542Z,77.51
2023-04-18T05:04:15.932Z,77.23
2023-04-18T05:06:44.068Z,77.53
2023-04-18T05:09:11.827Z,78.11
2023-04-18T05:11:39.619Z,77.99
2023-04-18T05:14:07.437Z,78.00
2023-04-18T05:16:36.742Z,78.40
2023-04-18T05:19:04.638Z,77.96
2023-04-18T05:21:32.619Z,78.50
2023-04-18T05:24:00.369Z,78.95
2023-04-18T05:26:28.524Z,79.38
2023-04-18T05:28:56.385Z,78.63
2023-04-18T05:31:24.181Z,78.97
2023-04-18T05:33:53.296Z,78.91
2023-04-18T05:36:21.477Z,78.80
2023-04-18T05:38:49.202Z,79.08
2023-04-18T05:41:16.981Z,79.25
2023-04-18T05:43:51.047Z,79.30
2023-04-18T05:46:25.989Z,78.95
2023-04-18T05:48:55.063Z,78.78
2023-04-18T05:51:22.809Z,79.46
2023-04-18T05:53:50.665Z,79.13
2023-04-18T05:56:18.403Z,79.50
2023-04-18T05:58:47.601Z,79.06
2023-04-18T06:01:16.137Z,78.84
2023-04-18T06:03:44.015Z,78.44
2023-04-18T06:06:13.711Z,78.48
2023-04-18T06:08:41.566Z,78.69
2023-04-18T06:11:09.386Z,78.87
2023-04-18T06:13:37.474Z,78.50
2023-04-18T06:16:05.886Z,78.40
2023-04-18T06:18:33.730Z,78.87
2023-04-18T06:21:01.516Z,78.64
2023-04-18T06:23:30.659Z,78.73
2023-04-18T06:25:59.086Z,78.39
2023-04-18T06:28:27.500Z,78.38
2023-04-18T06:30:55.236Z,78.30
2023-04-18T06:33:23.022Z,78.41
2023-04-18T06:35:50.802Z,78.57
2023-04-18T06:38:18.641Z,78.55
2023-04-18T06:40:47.821Z,78.48
2023-04-18T06:43:15.663Z,78.39
2023-04-18T06:45:43.539Z,78.18
2023-04-18T06:48:11.366Z,78.50
2023-04-18T06:50:39.072Z,78.48
2023-04-18T06:53:06.850Z,78.55
2023-04-18T06:55:34.669Z,78.38
2023-04-18T06:58:05.428Z,78.75
2023-04-18T07:00:33.326Z,78.43
2023-04-18T07:03:02.020Z,78.24
2023-04-18T07:05:30.453Z,77.92
2023-04-18T07:07:58.179Z,77.54
2023-04-18T07:10:25.921Z,77.46
2023-04-18T07:12:53.653Z,76.99
2023-04-18T07:15:22.742Z,76.69
2023-04-18T07:17:50.549Z,76.47
2023-04-18T07:20:18.314Z,75.93
2023-04-18T07:22:47.920Z,75.87
2023-04-18T07:25:15.815Z,74.58
2023-04-18T07:27:43.605Z,74.60
2023-04-18T07:30:12.278Z,74.42
2023-04-18T07:32:41.391Z,73.82
2023-04-18T07:35:09.811Z,72.94
2023-04-18T07:37:37.713Z,72.94
2023-04-18T07:40:06.631Z,72.51
2023-04-18T07:42:34.367Z,72.44
2023-04-18T07:45:02.293Z,72.70
2023-04-18T07:47:31.505Z,71.84
2023-04-18T07:50:01.397Z,71.39
2023-04-18T07:52:29.122Z,70.89
2023-04-18T07:54:57.010Z,70.80
2023-04-18T07:57:24.714Z,70.37
2023-04-18T07:59:53.862Z,70.14
2023-04-18T08:02:22.108Z,69.55
2023-04-18T08:04:52.002Z,68.54
2023-04-18T08:07:21.383Z,68.12
2023-04-18T08:09:49.180Z,67.37
2023-04-18T08:12:16.941Z,67.06
2023-04-18T08:14:44.778Z,66.49
2023-04-18T08:17:12.478Z,65.76
2023-04-18T08:19:40.457Z,65.95
2023-04-18T08:22:10.152Z,67.02
2023-04-18T08:24:40.118Z,66.21
2023-04-18T08:27:08.008Z,66.64
2023-04-18T08:29:35.975Z,66.67
2023-04-18T08:32:03.827Z,66.79
2023-04-18T08:34:34.162Z,66.21
2023-04-18T08:37:02.064Z,65.94
2023-04-18T08:39:29.823Z,65.21
2023-04-18T08:42:00.712Z,65.26
2023-04-18T08:44:29.217Z,65.17
2023-04-18T08:46:57.491Z,66.08
2023-04-18T08:49:26.159Z,66.40
2023-04-18T08:51:54.062Z,67.09
2023-04-18T08:54:23.836Z,67.18
2023-04-18T08:57:06.504Z,67.69
2023-04-18T08:59:35.476Z,68.23
2023-04-18T09:02:04.554Z,68.26
2023-04-18T09:04:37.683Z,68.57
2023-04-18T09:07:07.142Z,68.77
2023-04-18T09:09:42.267Z,68.85
2023-04-18T09:12:15.228Z,68.64
2023-04-18T09:14:46.962Z,68.45
2023-04-18T09:17:18.255Z,68.71
2023-04-18T09:19:48.818Z,68.25
2023-04-18T09:22:17.436Z,68.20
2023-04-18T09:24:55.423Z,68.55
2023-04-18T09:27:25.654Z,68.46
2023-04-18T09:29:56.465Z,67.88
2023-04-18T09:32:27.379Z,68.14
2023-04-18T09:34:57.996Z,67.82
2023-04-18T09:37:26.497Z,67.04
2023-04-18T09:39:54.447Z,66.21
2023-04-18T09:42:26.164Z,65.12
2023-04-18T09:45:04.832Z,63.46
2023-04-18T09:47:34.912Z,63.45
2023-04-18T09:50:04.220Z,61.53
2023-04-18T09:52:35.939Z,62.15
2023-04-18T09:55:05.895Z,62.64
2023-04-18T09:57:36.487Z,61.89
2023-04-18T10:00:13.911Z,61.30
2023-04-18T10:02:49.812Z,61.26
2023-04-18T10:05:21.105Z,59.79
2023-04-18T10:07:51.005Z,60.12
2023-04-18T10:10:19.115Z,59.33
2023-04-18T10:12:50.615Z,58.61
2023-04-18T10:15:21.110Z,57.68
2023-04-18T10:18:03.709Z,56.88
2023-04-18T10:20:35.378Z,56.31
2023-04-18T10:23:36.093Z,55.00
2023-04-18T10:26:04.843Z,55.28
2023-04-18T10:28:53.145Z,54.78
2023-04-18T10:31:22.530Z,54.11
2023-04-18T10:34:03.289Z,54.82
2023-04-18T10:36:32.525Z,55.23
2023-04-18T10:39:02.967Z,54.31
2023-04-18T10:41:32.275Z,55.13
2023-04-18T10:44:22.237Z,53.98
2023-04-18T10:47:31.746Z,52.54
2023-04-18T10:50:06.160Z,54.19
2023-04-18T10:52:34.536Z,54.52
2023-04-18T10:55:18.420Z,54.06
2023-04-18T10:57:47.716Z,53.66
2023-04-18T11:00:18.793Z,53.33
2023-04-18T11:02:51.845Z,53.49
2023-04-18T11:05:22.786Z,52.79
2023-04-18T11:07:51.012Z,52.96
2023-04-18T11:10:20.942Z,53.42
2023-04-18T11:12:49.111Z,53.41
2023-04-18T11:15:21.892Z,53.27
2023-04-18T11:17:57.965Z,52.62
2023-04-18T11:20:26.651Z,53.01
2023-04-18T11:22:56.121Z,52.21
2023-04-18T11:25:26.994Z,51.89
2023-04-18T11:27:55.755Z,51.35
2023-04-18T11:30:24.901Z,51.83
2023-04-18T11:32:54.110Z,51.66
2023-04-18T11:35:21.884Z,50.84
2023-04-18T11:37:51.139Z,51.00
2023-04-18T11:40:18.971Z,51.04
2023-04-18T11:42:46.786Z,51.56
2023-04-18T11:45:16.203Z,51.91
2023-04-18T11:47:47.376Z,51.71
2023-04-18T11:50:15.198Z,51.28
2023-04-18T11:52:43.474Z,51.41
2023-04-18T11:55:14.027Z,50.53
2023-04-18T11:57:42.538Z,50.73
2023-04-18T12:00:12.283Z,51.15
2023-04-18T12:02:42.144Z,50.67
2023-04-18T12:05:12.166Z,49.93
2023-04-18T12:07:41.877Z,49.97
2023-04-18T12:10:11.236Z,50.34
2023-04-18T12:12:39.042Z,50.98
2023-04-18T12:15:09.751Z,50.51
2023-04-18T12:17:38.450Z,50.44
2023-04-18T12:20:09.857Z,50.90
2023-04-18T12:22:44.466Z,50.02
2023-04-18T12:25:27.706Z,49.84
2023-04-18T12:27:58.678Z,50.13
2023-04-18T12:30:28.890Z,49.64
2023-04-18T12:32:58.389Z,50.01
2023-04-18T12:35:26.885Z,50.22
2023-04-18T12:37:57.364Z,49.96
2023-04-18T12:40:26.397Z,50.24
2023-04-18T12:42:55.471Z,50.93
2023-04-18T12:45:24.510Z,50.32
2023-04-18T12:47:53.391Z,49.82
2023-04-18T12:50:22.775Z,50.07
2023-04-18T12:52:52.063Z,50.57
2023-04-18T12:55:22.630Z,50.46
2023-04-18T12:57:51.789Z,50.85
2023-04-18T13:00:19.554Z,50.04
2023-04-18T13:02:47.421Z,49.93
2023-04-18T13:05:16.610Z,50.61
2023-04-18T13:07:47.257Z,50.72
2023-04-18T13:10:17.603Z,50.72
2023-04-18T13:12:47.471Z,50.23
2023-04-18T13:15:15.817Z,50.66
2023-04-18T13:17:44.463Z,51.27
2023-04-18T13:20:13.604Z,50.87
2023-04-18T13:22:42.294Z,50.89
2023-04-18T13:25:11.387Z,50.69
2023-04-18T13:27:41.765Z,49.99
2023-04-18T13:30:12.204Z,50.35
2023-04-18T13:32:40.490Z,50.87
2023-04-18T13:35:09.810Z,50.31
2023-04-18T13:37:37.816Z,51.24
2023-04-18T13:40:06.826Z,51.29
2023-04-18T13:42:34.920Z,50.98
2023-04-18T13:45:03.242Z,51.13
2023-04-18T13:47:32.554Z,51.19
2023-04-18T13:50:00.404Z,50.85
2023-04-18T13:52:28.133Z,51.34
2023-04-18T13:54:56.111Z,50.67
2023-04-18T13:57:23.822Z,50.61
2023-04-18T13:59:51.622Z,49.92
2023-04-18T14:02:19.393Z,49.67
2023-04-18T14:04:48.782Z,48.96
2023-04-18T14:07:16.587Z,49.76
2023-04-18T14:09:44.338Z,49.09
2023-04-18T14:12:12.168Z,49.36
2023-04-18T14:14:39.896Z,49.46
2023-04-18T14:17:07.671Z,50.48
2023-04-18T14:19:35.820Z,50.11
2023-04-18T14:22:04.923Z,50.65
2023-04-18T14:24:32.872Z,51.08
2023-04-18T14:27:01.946Z,51.68
2023-04-18T14:29:29.761Z,51.83
2023-04-18T14:31:57.515Z,52.01
2023-04-18T14:34:25.345Z,52.21
2023-04-18T14:36:53.054Z,52.77
2023-04-18T14:39:22.217Z,53.08
2023-04-18T14:41:50.056Z,53.48
2023-04-18T14:44:17.752Z,54.49
2023-04-18T14:46:45.605Z,54.29
2023-04-18T14:49:13.642Z,54.65
2023-04-18T14:51:41.537Z,55.27
2023-04-18T14:54:09.394Z,55.30
2023-04-18T14:56:38.557Z,55.55
2023-04-18T14:59:06.305Z,56.10
2023-04-18T15:01:34.187Z,56.08
2023-04-18T15:04:04.277Z,55.79
2023-04-18T15:06:32.567Z,56.08
2023-04-18T15:09:00.526Z,56.48
2023-04-18T15:11:28.239Z,56.89
2023-04-18T15:13:58.006Z,57.19
2023-04-18T15:16:25.813Z,57.16
2023-04-18T15:18:53.738Z,57.27
2023-04-18T15:21:21.603Z,57.55
2023-04-18T15:23:49.338Z,57.36
2023-04-18T15:26:17.046Z,57.11
2023-04-18T15:28:45.215Z,57.04
2023-04-18T15:31:15.991Z,57.58
2023-04-18T15:33:43.840Z,57.45
2023-04-18T15:36:11.583Z,57.39
2023-04-18T15:38:39.904Z,57.66
2023-04-18T15:41:07.701Z,58.00
2023-04-18T15:43:35.420Z,58.11
2023-04-18T15:46:04.165Z,58.17
2023-04-18T15:48:34.463Z,58.04
2023-04-18T15:51:02.269Z,58.30
2023-04-18T15:53:30.237Z,58.37
2023-04-18T15:56:00.812Z,58.23
2023-04-18T15:58:30.127Z,58.43
2023-04-18T16:00:58.771Z,58.44
2023-04-18T16:03:27.019Z,58.33
2023-04-18T16:05:56.292Z,58.45
2023-04-18T16:08:24.039Z,58.31
2023-04-18T16:10:53.266Z,58.49
2023-04-18T16:13:21.014Z,58.45
2023-04-18T16:15:48.840Z,58.33
2023-04-18T16:18:16.583Z,58.16
2023-04-18T16:20:44.330Z,57.95
2023-04-18T16:23:13.403Z,57.68
2023-04-18T16:25:41.201Z,58.02
2023-04-18T16:28:08.905Z,58.18
2023-04-18T16:30:36.644Z,58.38
2023-04-18T16:33:04.661Z,58.25
2023-04-18T16:35:32.758Z,58.35
2023-04-18T16:38:00.731Z,58.53
2023-04-18T16:40:30.657Z,58.23
2023-04-18T16:42:58.639Z,58.43
2023-04-18T16:45:26.369Z,58.31
2023-04-18T16:47:54.153Z,58.41
2023-04-18T16:50:23.470Z,58.38
2023-04-18T16:52:51.477Z,58.34
2023-04-18T16:55:19.345Z,58.35
2023-04-18T16:57:48.425Z,58.07
2023-04-18T17:00:16.664Z,58.18
2023-04-18T17:02:45.214Z,58.13
2023-04-18T17:05:13.098Z,58.03
2023-04-18T17:07:40.791Z,58.14
2023-04-18T17:10:10.257Z,58.35
2023-04-18T17:12:38.152Z,58.30
2023-04-18T17:15:09.124Z,58.60
2023-04-18T17:17:36.850Z,58.66
2023-04-18T17:20:07.227Z,58.73
2023-04-18T17:22:35.742Z,59.29
2023-04-18T17:25:03.959Z,59.60
2023-04-18T17:27:31.672Z,59.96
2023-04-18T17:29:59.375Z,60.22
2023-04-18T17:32:28.594Z,60.46
2023-04-18T17:34:56.677Z,60.92
2023-04-18T17:37:24.432Z,60.87
2023-04-18T17:39:52.144Z,61.11
2023-04-18T17:42:21.077Z,61.84
2023-04-18T17:44:48.934Z,62.13
2023-04-18T17:47:16.657Z,62.11
2023-04-18T17:49:46.027Z,62.45
2023-04-18T17:52:13.891Z,62.62
2023-04-18T17:54:41.717Z,62.62
2023-04-18T17:57:09.467Z,62.93
2023-04-18T17:59:38.371Z,63.49
2023-04-18T18:02:06.596Z,63.76
2023-04-18T18:04:34.567Z,64.01
2023-04-18T18:07:04.058Z,64.72
2023-04-18T18:09:31.998Z,64.97
2023-04-18T18:11:59.963Z,64.99
2023-04-18T18:14:28.170Z,65.52
2023-04-18T18:16:56.113Z,65.51
2023-04-18T18:19:23.912Z,66.06
2023-04-18T18:21:51.658Z,66.32
2023-04-18T18:24:20.821Z,66.73
2023-04-18T18:26:51.009Z,66.69
2023-04-18T18:29:19.849Z,66.70
2023-04-18T18:31:47.685Z,67.02
2023-04-18T18:34:15.581Z,67.35
2023-04-18T18:36:43.323Z,67.54
2023-04-18T18:39:11.792Z,68.21
2023-04-18T18:41:41.202Z,67.85
2023-04-18T18:44:09.002Z,68.18
2023-04-18T18:46:36.773Z,68.40
2023-04-18T18:49:04.607Z,68.93
2023-04-18T18:51:32.631Z,68.69
2023-04-18T18:54:00.389Z,69.12
2023-04-18T18:56:28.246Z,69.14
2023-04-18T18:58:57.480Z,68.99
2023-04-18T19:01:25.289Z,69.13
2023-04-18T19:03:53.276Z,68.64
2023-04-18T19:06:21.244Z,68.97
2023-04-18T19:08:48.954Z,68.39
2023-04-18T19:11:18.184Z,68.17
2023-04-18T19:13:46.021Z,68.41
2023-04-18T19:16:15.130Z,68.03
2023-04-18T19:18:46.862Z,67.87
2023-04-18T19:21:14.990Z,67.73
2023-04-18T19:23:42.803Z,67.71
2023-04-18T19:26:10.654Z,67.57
2023-04-18T19:28:38.381Z,67.46
2023-04-18T19:31:06.676Z,67.31
2023-04-18T19:33:35.752Z,67.13
2023-04-18T19:36:03.519Z,67.14
2023-04-18T19:38:31.358Z,67.15
2023-04-18T19:40:59.099Z,66.99
2023-04-18T19:43:26.909Z,66.96
2023-04-18T19:45:55.382Z,67.10
2023-04-18T19:48:23.254Z,67.08
2023-04-18T19:50:52.414Z,67.32
2023-04-18T19:53:20.604Z,67.30
2023-04-18T19:55:48.359Z,67.37
2023-04-18T19:58:37.891Z,68.20
2023-04-18T20:01:05.857Z,68.01
2023-04-18T20:03:34.445Z,68.19
2023-04-18T20:06:05.423Z,68.75
2023-04-18T20:08:33.306Z,68.87
2023-04-18T20:11:01.164Z,69.13
2023-04-18T20:13:28.986Z,69.24
2023-04-18T20:15:56.899Z,69.64
2023-04-18T20:18:24.940Z,69.46
2023-04-18T20:20:52.702Z,69.84
2023-04-18T20:23:21.839Z,70.04
2023-04-18T20:25:49.639Z,69.80
2023-04-18T20:28:17.371Z,70.25
2023-04-18T20:30:45.709Z,70.09
2023-04-18T20:33:13.653Z,70.70
2023-04-18T20:35:41.556Z,70.02
2023-04-18T20:38:11.145Z,69.95
2023-04-18T20:40:40.343Z,70.54
2023-04-18T20:43:08.178Z,70.10
2023-04-18T20:45:37.563Z,70.36
2023-04-18T20:48:06.421Z,70.45
2023-04-18T20:50:34.271Z,70.35
2023-04-18T20:53:02.394Z,70.36
2023-04-18T20:55:30.278Z,70.10
2023-04-18T20:57:59.540Z,71.02
2023-04-18T21:00:27.576Z,70.04
2023-04-18T21:02:55.520Z,70.12
2023-04-18T21:05:23.628Z,70.08
2023-04-18T21:07:51.398Z,70.13
2023-04-18T21:10:19.267Z,70.18
2023-04-18T21:12:47.229Z,70.21
2023-04-18T21:15:16.446Z,70.50
2023-04-18T21:17:44.374Z,70.19
2023-04-18T21:20:12.358Z,70.21
2023-04-18T21:22:40.077Z,70.20
2023-04-18T21:25:08.867Z,70.50
2023-04-18T21:27:36.677Z,70.29
2023-04-18T21:30:05.209Z,70.19
2023-04-18T21:32:34.428Z,70.50
2023-04-18T21:35:02.512Z,70.18
2023-04-18T21:37:31.094Z,70.55
2023-04-18T21:39:58.966Z,70.50
2023-04-18T21:42:26.875Z,70.32
2023-04-18T21:44:55.104Z,70.28
2023-04-18T21:47:23.021Z,70.28
2023-04-18T21:49:52.123Z,70.44
2023-04-18T21:52:19.912Z,70.20
2023-04-18T21:54:47.762Z,70.42
2023-04-18T21:57:15.511Z,70.19
2023-04-18T21:59:43.232Z,70.17
2023-04-18T22:02:11.255Z,70.31
2023-04-18T22:04:42.495Z,70.10
2023-04-18T22:07:12.441Z,70.36
2023-04-18T22:09:40.168Z,70.37
2023-04-18T22:12:08.560Z,70.37
2023-04-18T22:14:36.332Z,70.48
2023-04-18T22:17:04.654Z,70.60
2023-04-18T22:19:32.551Z,70.29
2023-04-18T22:22:00.289Z,70.32
2023-04-18T22:24:29.454Z,70.45
2023-04-18T22:26:57.186Z,70.61
2023-04-18T22:29:24.913Z,70.48
2023-04-18T22:31:52.623Z,70.17
2023-04-18T22:34:20.386Z,70.13
2023-04-18T22:36:48.126Z,70.17
2023-04-18T22:39:16.180Z,70.21
2023-04-18T22:41:45.408Z,69.78
2023-04-18T22:44:13.355Z,69.68
2023-04-18T22:46:41.384Z,69.66
2023-04-18T22:49:09.233Z,69.42
2023-04-18T22:51:38.113Z,69.25
2023-04-18T22:54:05.970Z,69.09
2023-04-18T22:56:33.745Z,68.59
2023-04-18T22:59:02.833Z,68.27
2023-04-18T23:01:30.606Z,67.88
2023-04-18T23:03:58.510Z,67.78
2023-04-18T23:06:27.918Z,67.53
2023-04-18T23:08:55.622Z,67.44
2023-04-18T23:11:23.325Z,67.06
2023-04-18T23:13:51.370Z,67.30
2023-04-18T23:16:20.585Z,67.11
2023-04-18T23:18:48.340Z,67.26
2023-04-18T23:21:17.374Z,66.82
2023-04-18T23:23:45.105Z,66.79
2023-04-18T23:26:14.280Z,66.92
2023-04-18T23:28:42.237Z,66.50
2023-04-18T23:31:10.371Z,66.44
2023-04-18T23:33:39.487Z,66.36
2023-04-18T23:36:08.138Z,66.55
2023-04-18T23:38:37.161Z,66.54
2023-04-18T23:41:04.997Z,66.58
2023-04-18T23:43:32.804Z,66.53
2023-04-18T23:46:00.573Z,66.67
2023-04-18T23:48:28.384Z,67.09
2023-04-18T23:50:57.484Z,66.67
2023-04-18T23:53:25.283Z,66.66
2023-04-18T23:55:54.261Z,66.56
2023-04-18T23:58:22.089Z,66.41
